Desbiens, Canada
Current Conditions -  °F | °C
As of 2:00 AM on Saturday 29 Nov 2014 (Local Time) from CYRJ Reporting Station
Few Clouds Few Clouds  
Wind Chill: -11°   Ceiling: Unl
Heat Index:   Visibility: 25mi
Dew Point: -4°   Wind: 7mph
Humidity: 78%   Direction: 240°WSW
Pressure: 30.15"   Gusts: NA
Location:  48.42°N, 71.95°W
Report Text: CYRJ 290700Z 24006KT 25SM FEW030 M17/M20 A3015 RMK SC1 SC TR SLP227
Loading
Personal Weather Stations






























Interactive Weather Map New forecast layout! Learn more

10-Day Weather Forecast

Advertisements
Track Severe Weather on mobile